createdAt,value
2016-05-03T13:30:11.429Z,44.57
2016-05-03T13:31:13.065Z,45.53
2016-05-03T13:32:12.047Z,45.55
2016-05-03T13:33:11.998Z,46.98
2016-05-03T13:34:11.984Z,46.77
2016-05-03T13:35:11.814Z,46.58
2016-05-03T13:36:14.159Z,47.16
2016-05-03T13:37:12.927Z,46.87
2016-05-03T13:38:12.126Z,45.15
2016-05-03T13:39:11.463Z,45.43
2016-05-03T13:40:12.002Z,46.39
2016-05-03T13:41:12.104Z,47.53
2016-05-03T13:42:13.315Z,46.87
2016-05-03T13:43:11.728Z,47.34
2016-05-03T13:44:11.763Z,45.91
2016-05-03T13:45:12.908Z,45.62
2016-05-03T13:46:12.038Z,46.01
2016-05-03T13:47:11.527Z,46.01
2016-05-03T13:48:11.890Z,45.62
2016-05-03T13:49:12.769Z,46.39
2016-05-03T13:50:12.537Z,46.39
2016-05-03T13:51:12.760Z,46.58
2016-05-03T13:52:11.889Z,47.63
2016-05-03T13:53:11.797Z,48.59
2016-05-03T13:54:11.473Z,49.16
2016-05-03T13:55:13.211Z,49.16
2016-05-03T13:56:11.854Z,49.45
2016-05-03T13:57:11.701Z,49.35
2016-05-03T13:58:11.845Z,48.21
2016-05-03T13:59:11.800Z,46.48
2016-05-03T14:00:30.568Z,47.27
2016-05-03T14:02:06.449Z,46.98
2016-05-03T14:03:56.251Z,48.04
2016-05-03T14:05:29.067Z,46.39
2016-05-03T14:07:15.728Z,47.92
2016-05-03T14:09:15.109Z,47.53
2016-05-03T14:11:14.927Z,48.59
2016-05-03T14:13:11.839Z,49.45
2016-05-03T14:15:10.641Z,47.73
2016-05-03T14:16:50.849Z,47.52
2016-05-03T14:18:49.104Z,49.55
2016-05-03T14:20:22.247Z,48.57
2016-05-03T14:22:07.284Z,50
2016-05-03T14:24:08.633Z,51.15
2016-05-03T14:25:58.936Z,51.81
2016-05-03T14:27:47.238Z,51.7
2016-05-03T14:29:53.509Z,53.61
2016-05-03T14:30:12.946Z,52.84
2016-05-03T14:31:13.106Z,51.24
2016-05-03T14:32:13.029Z,51.41
2016-05-03T14:33:13.157Z,50.93
2016-05-03T14:34:14.239Z,51.21
2016-05-03T14:35:13.116Z,51.5
2016-05-03T14:36:14.337Z,51.91
2016-05-03T14:37:13.059Z,53.16
2016-05-03T14:38:13.890Z,53.44
2016-05-03T14:39:14.143Z,50.95
2016-05-03T14:40:15.036Z,50.29
2016-05-03T14:41:14.226Z,51.15
2016-05-03T14:42:13.917Z,51.05
2016-05-03T14:43:13.981Z,51.34
2016-05-03T14:44:14.203Z,50.09
2016-05-03T14:45:13.971Z,51.31
2016-05-03T14:46:13.474Z,52.39
2016-05-03T14:47:14.820Z,53.03
2016-05-03T14:48:14.166Z,53.32
2016-05-03T14:49:13.982Z,52.84
2016-05-03T14:50:13.750Z,52.75
2016-05-03T14:51:13.722Z,53.22
2016-05-03T14:52:13.443Z,51.98
2016-05-03T14:53:12.993Z,52.08
2016-05-03T14:54:14.183Z,52.17
2016-05-03T14:55:13.357Z,51.7
2016-05-03T14:56:13.906Z,52.75
2016-05-03T14:57:13.987Z,53.13
2016-05-03T14:58:13.834Z,53.32
2016-05-03T14:59:13.743Z,55.04
2016-05-03T15:00:12.808Z,55.23
2016-05-03T15:01:13.232Z,55.3
2016-05-03T15:02:13.079Z,54.72
2016-05-03T15:03:13.207Z,57.97
2016-05-03T15:04:12.834Z,60.07
2016-05-03T15:05:12.947Z,60.81
2016-05-03T15:06:13.075Z,62.15
2016-05-03T15:07:12.843Z,63.29
2016-05-03T15:08:13.111Z,64.91
2016-05-03T15:09:13.941Z,65.07
2016-05-03T15:10:13.194Z,66.69
2016-05-03T15:11:12.822Z,67.33
2016-05-03T15:12:12.450Z,68.66
2016-05-03T15:13:13.218Z,69.71
2016-05-03T15:14:13.158Z,70.67
2016-05-03T15:15:14.099Z,71.48
2016-05-03T15:16:13.070Z,72.06
2016-05-03T15:17:12.948Z,73.87
2016-05-03T15:18:12.794Z,75.11
2016-05-03T15:19:13.062Z,75.55
2016-05-03T15:20:12.863Z,76.59
2016-05-03T15:21:33.333Z,77.45
2016-05-03T15:23:19.214Z,80.31
2016-05-03T15:24:57.891Z,81.51
2016-05-03T15:26:44.662Z,82.46
2016-05-03T15:28:21.696Z,83.41
2016-05-03T15:29:57.280Z,84.94
2016-05-03T15:32:01.237Z,84.89
2016-05-03T15:34:04.900Z,86.61
2016-05-03T15:36:16.326Z,87.37
2016-05-03T15:37:49.879Z,88.23
2016-05-03T15:39:39.619Z,88.37
2016-05-03T15:41:49.125Z,89.7
2016-05-03T15:43:53.864Z,89.99
2016-05-03T15:46:09.729Z,90.66
2016-05-03T15:48:22.547Z,90.94
2016-05-03T15:50:29.239Z,91.32
2016-05-03T15:51:02.336Z,91.89
2016-05-03T15:52:04.808Z,92.18
2016-05-03T15:53:02.951Z,92.65
2016-05-03T15:54:03.125Z,92.27
2016-05-03T15:55:03.378Z,92.99
2016-05-03T15:56:02.631Z,92.8
2016-05-03T15:57:03.243Z,92.8
2016-05-03T15:58:03.104Z,93.18
2016-05-03T15:59:03.857Z,93.27
2016-05-03T16:00:03.267Z,93.46
2016-05-03T16:01:03.331Z,93.37
2016-05-03T16:02:03.366Z,93.46
2016-05-03T16:03:03.415Z,93.55
2016-05-03T16:04:03.527Z,93.84
2016-05-03T16:05:03.327Z,94.03
2016-05-03T16:06:03.267Z,94.13
2016-05-03T16:07:02.817Z,94.13
2016-05-03T16:08:03.287Z,94.6
2016-05-03T16:09:03.290Z,94.51
2016-05-03T16:10:02.215Z,94.51
2016-05-03T16:11:03.561Z,94.7
2016-05-03T16:12:02.378Z,94.89
2016-05-03T16:13:03.348Z,94.6
2016-05-03T16:14:03.444Z,95.17
2016-05-03T16:15:03.338Z,94.89
2016-05-03T16:16:03.200Z,94.98
2016-05-03T16:17:03.172Z,94.79
2016-05-03T16:18:03.175Z,95.08
2016-05-03T16:19:03.178Z,94.98
2016-05-03T16:20:03.289Z,95.51
2016-05-03T16:21:02.963Z,95.51
2016-05-03T16:22:03.186Z,95.32
2016-05-03T16:23:03.188Z,95.51
2016-05-03T16:24:03.080Z,95.32
2016-05-03T16:25:02.177Z,95.12
2016-05-03T16:26:03.133Z,95.79
2016-05-03T16:27:03.338Z,95.6
2016-05-03T16:28:03.217Z,96.17
2016-05-03T16:29:03.188Z,96.26
2016-05-03T16:30:03.316Z,95.79
2016-05-03T16:31:03.022Z,96.08
2016-05-03T16:32:03.353Z,96.08
2016-05-03T16:33:04.012Z,96.36
2016-05-03T16:34:03.201Z,96.17
2016-05-03T16:35:02.939Z,96.08
2016-05-03T16:36:03.801Z,96.45
2016-05-03T16:37:17.757Z,96.17
2016-05-03T16:38:48.887Z,96.36
2016-05-03T16:40:04.499Z,96.84
2016-05-03T16:41:40.364Z,96.74
2016-05-03T16:42:46.601Z,96.45
2016-05-03T16:44:14.509Z,96.45
2016-05-03T16:44:41.231Z,96.55
2016-05-03T16:45:40.297Z,96.74
2016-05-03T16:46:41.330Z,96.84
2016-05-03T16:47:41.333Z,96.65
2016-05-03T16:48:41.164Z,96.65
2016-05-03T16:49:41.557Z,96.74
2016-05-03T16:50:41.200Z,97.03
2016-05-03T16:51:40.185Z,97.31
2016-05-03T16:52:40.297Z,96.84
2016-05-03T16:53:39.894Z,97.03
2016-05-03T16:54:41.524Z,96.84
2016-05-03T16:55:41.121Z,96.93
2016-05-03T16:56:40.230Z,96.84
2016-05-03T16:57:41.297Z,97.12
2016-05-03T16:58:40.657Z,96.84
2016-05-03T16:59:40.129Z,97.5
2016-05-03T17:00:41.337Z,97.41
2016-05-03T17:01:40.180Z,97.41
2016-05-03T17:02:40.933Z,97.45
2016-05-03T17:03:40.920Z,97.17
2016-05-03T17:04:40.188Z,97.64
2016-05-03T17:05:40.379Z,97.27
2016-05-03T17:06:41.228Z,96.79
2016-05-03T17:07:41.262Z,97.36
2016-05-03T17:08:43.139Z,97.36
2016-05-03T17:09:40.545Z,97.27
2016-05-03T17:10:41.457Z,97.27
2016-05-03T17:11:41.270Z,97.17
2016-05-03T17:12:40.272Z,97.45
2016-05-03T17:13:42.622Z,97.45
2016-05-03T17:14:40.919Z,97.17
2016-05-03T17:15:41.234Z,97.64
2016-05-03T17:16:40.142Z,97.55
2016-05-03T17:17:41.395Z,97.55
2016-05-03T17:18:40.914Z,97.83
2016-05-03T17:19:41.229Z,97.45
2016-05-03T17:20:41.060Z,97.74
2016-05-03T17:21:40.500Z,97.83
2016-05-03T17:22:41.112Z,97.92
2016-05-03T17:23:40.286Z,97.83
2016-05-03T17:24:41.352Z,97.92
2016-05-03T17:25:41.214Z,97.83
2016-05-03T17:26:40.951Z,97.74
2016-05-03T17:27:39.797Z,97.88
2016-05-03T17:28:40.566Z,97.69
2016-05-03T17:29:40.318Z,97.78
2016-05-03T17:30:39.837Z,97.36
2016-05-03T17:31:39.793Z,97.55
2016-05-03T17:32:40.279Z,97.5
2016-05-03T17:33:40.813Z,97.6
2016-05-03T17:34:39.801Z,97.41
2016-05-03T17:35:39.429Z,97.31
2016-05-03T17:36:41.056Z,97.69
2016-05-03T17:37:41.293Z,97.88
2016-05-03T17:38:41.093Z,97.69
2016-05-03T17:39:39.845Z,97.78
2016-05-03T17:40:40.754Z,97.69
2016-05-03T17:41:40.992Z,97.69
2016-05-03T17:42:40.620Z,97.5
2016-05-03T17:43:40.465Z,97.6
2016-05-03T17:44:41.217Z,98.16
2016-05-03T17:45:39.892Z,98.16
2016-05-03T17:46:40.848Z,97.6
2016-05-03T17:47:39.508Z,97.69
2016-05-03T17:48:40.604Z,97.88
2016-05-03T17:49:40.575Z,97.88
2016-05-03T17:50:40.233Z,97.88
2016-05-03T17:51:40.206Z,98.07
2016-05-03T17:52:40.662Z,98.07
2016-05-03T17:53:40.836Z,97.88
2016-05-03T17:54:40.698Z,97.97
2016-05-03T17:55:40.435Z,98.07
2016-05-03T17:56:40.469Z,97.78
2016-05-03T17:57:39.878Z,97.88
2016-05-03T17:58:40.537Z,97.97
2016-05-03T17:59:39.383Z,97.97
2016-05-03T18:00:39.433Z,97.88
2016-05-03T18:01:39.749Z,98.16
2016-05-03T18:02:40.516Z,98.16
2016-05-03T18:03:39.254Z,98.26
2016-05-03T18:04:39.694Z,98.07
2016-05-03T18:05:39.244Z,98.35
2016-05-03T18:06:39.621Z,98.16
2016-05-03T18:07:39.530Z,98.26
2016-05-03T18:08:39.407Z,98.54
2016-05-03T18:09:39.504Z,98.07
2016-05-03T18:10:39.226Z,98.35
2016-05-03T18:11:39.431Z,98.26
2016-05-03T18:12:39.825Z,98.54
2016-05-03T18:13:39.734Z,98.45
2016-05-03T18:14:40.659Z,98.35
2016-05-03T18:15:40.333Z,97.97
2016-05-03T18:16:40.320Z,97.88
2016-05-03T18:17:39.979Z,97.88
2016-05-03T18:18:41.092Z,98.54
2016-05-03T18:19:39.358Z,98.4
2016-05-03T18:20:39.878Z,98.54
2016-05-03T18:21:39.911Z,98.02
2016-05-03T18:22:39.805Z,98.02
2016-05-03T18:23:39.870Z,97.83
2016-05-03T18:24:39.842Z,98.02
2016-05-03T18:25:39.860Z,98.02
2016-05-03T18:26:40.316Z,98.02
2016-05-03T18:27:40.303Z,97.36
2016-05-03T18:28:40.821Z,97.64
2016-05-03T18:29:40.823Z,97.26
2016-05-03T18:30:41.030Z,97.64
2016-05-03T18:31:39.657Z,97.74
2016-05-03T18:32:39.378Z,97.45
2016-05-03T18:33:39.318Z,97.36
2016-05-03T18:34:40.665Z,96.59
2016-05-03T18:35:39.246Z,96.69
2016-05-03T18:36:40.327Z,96.69
2016-05-03T18:37:40.376Z,96.5
2016-05-03T18:38:40.623Z,96.97
2016-05-03T18:39:39.282Z,96.69
2016-05-03T18:40:39.693Z,97.26
2016-05-03T18:41:39.133Z,97.36
2016-05-03T18:42:40.338Z,97.45
2016-05-03T18:43:39.534Z,96.78
2016-05-03T18:44:39.085Z,96.69
2016-05-03T18:45:41.072Z,96.59
2016-05-03T18:46:39.839Z,96.59
2016-05-03T18:47:39.156Z,96.78
2016-05-03T18:48:40.361Z,96.88
2016-05-03T18:49:40.301Z,97.36
2016-05-03T18:50:40.350Z,97.36
2016-05-03T18:51:39.323Z,97.26
2016-05-03T18:52:40.575Z,97.36
2016-05-03T18:53:40.156Z,96.97
2016-05-03T18:54:39.158Z,96.78
2016-05-03T18:55:39.708Z,96.78
2016-05-03T18:56:40.429Z,96.78
2016-05-03T18:57:39.152Z,97.07
2016-05-03T18:58:39.122Z,96.78
2016-05-03T18:59:39.562Z,97.17
2016-05-03T19:00:40.112Z,97.45
2016-05-03T19:01:39.443Z,97.17
2016-05-03T19:02:39.946Z,97.12
2016-05-03T19:03:39.386Z,97.17
2016-05-03T19:04:40.341Z,97.07
2016-05-03T19:05:39.923Z,97.07
2016-05-03T19:06:39.441Z,97.17
2016-05-03T19:07:39.599Z,97.64
2016-05-03T19:08:38.884Z,97.74
2016-05-03T19:09:39.527Z,97.17
2016-05-03T19:10:41.232Z,97.07
2016-05-03T19:11:39.610Z,97.64
2016-05-03T19:12:39.879Z,97.83
2016-05-03T19:13:39.365Z,97.78
2016-05-03T19:14:39.603Z,97.64
2016-05-03T19:15:39.465Z,97.64
2016-05-03T19:16:38.717Z,97.55
2016-05-03T19:17:40.033Z,97.83
2016-05-03T19:18:39.894Z,97.45
2016-05-03T19:19:38.445Z,97.64
2016-05-03T19:20:39.369Z,97.59
2016-05-03T19:21:39.731Z,97.64
2016-05-03T19:22:40.405Z,96.92
2016-05-03T19:23:39.892Z,97.17
2016-05-03T19:24:39.505Z,96.97
2016-05-03T19:25:39.883Z,97.17
2016-05-03T19:26:39.994Z,97.21
2016-05-03T19:27:39.060Z,97.17
2016-05-03T19:28:39.969Z,97.36
2016-05-03T19:29:39.377Z,97.07
2016-05-03T19:30:38.240Z,97.17
2016-05-03T19:31:39.211Z,97.17
2016-05-03T19:32:39.480Z,97.26
2016-05-03T19:33:39.576Z,97.07
2016-05-03T19:34:39.204Z,97.83
2016-05-03T19:35:39.816Z,97.45
2016-05-03T19:36:39.724Z,97.45
2016-05-03T19:37:39.602Z,97.64
2016-05-03T19:38:40.371Z,97.64
2016-05-03T19:39:39.435Z,97.74
2016-05-03T19:40:39.595Z,97.45
2016-05-03T19:41:39.534Z,97.64
2016-05-03T19:42:39.523Z,97.64
2016-05-03T19:43:39.322Z,97.45
2016-05-03T19:44:39.636Z,97.55
2016-05-03T19:45:39.248Z,97.74
2016-05-03T19:46:39.439Z,97.83
2016-05-03T19:47:39.051Z,97.83
2016-05-03T19:48:39.725Z,97.83
2016-05-03T19:49:38.384Z,97.83
2016-05-03T19:50:39.262Z,98.3
2016-05-03T19:51:38.327Z,98.11
2016-05-03T19:52:39.299Z,98.21
2016-05-03T19:53:39.286Z,98.21
2016-05-03T19:54:39.679Z,98.02
2016-05-03T19:55:39.150Z,98.4
2016-05-03T19:56:39.263Z,98.3
2016-05-03T19:57:39.483Z,98.11
2016-05-03T19:58:39.144Z,98.59
2016-05-03T19:59:38.459Z,98.49
2016-05-03T20:00:38.288Z,98.49
2016-05-03T20:01:39.651Z,98.4
2016-05-03T20:02:38.404Z,98.49
2016-05-03T20:03:39.250Z,97.83
2016-05-03T20:04:38.191Z,98.02
2016-05-03T20:05:39.756Z,97.74
2016-05-03T20:06:39.399Z,97.92
2016-05-03T20:07:38.168Z,97.92
2016-05-03T20:08:38.405Z,98.02
2016-05-03T20:09:39.173Z,98.02
2016-05-03T20:10:37.816Z,97.64
2016-05-03T20:11:38.053Z,97.74
2016-05-03T20:12:37.728Z,97.88
2016-05-03T20:13:39.309Z,97.83
2016-05-03T20:14:38.029Z,98.02
2016-05-03T20:15:38.064Z,97.92
2016-05-03T20:16:37.754Z,97.92
2016-05-03T20:17:39.163Z,97.92
2016-05-03T20:18:37.665Z,98.11
2016-05-03T20:19:37.731Z,98.21
2016-05-03T20:20:38.015Z,98.49
2016-05-03T20:21:38.533Z,98.59
2016-05-03T20:22:38.051Z,98.35
2016-05-03T20:23:38.475Z,98.11
2016-05-03T20:24:38.166Z,98.49
2016-05-03T20:25:37.638Z,98.16
2016-05-03T20:26:38.203Z,98.4
2016-05-03T20:27:37.580Z,98.35
2016-05-03T20:28:37.880Z,97.88
2016-05-03T20:29:37.569Z,98.02
2016-05-03T20:30:38.932Z,98.4
2016-05-03T20:31:39.435Z,98.3
2016-05-03T20:32:37.860Z,98.44
2016-05-03T20:33:37.768Z,98.11
2016-05-03T20:34:38.928Z,97.97
2016-05-03T20:35:38.665Z,98.25
2016-05-03T20:36:37.823Z,97.78
2016-05-03T20:37:38.733Z,97.59
2016-05-03T20:38:38.688Z,97.78
2016-05-03T20:39:38.894Z,97.5
2016-05-03T20:40:38.647Z,97.5
2016-05-03T20:41:38.134Z,98.07
2016-05-03T20:42:37.746Z,98.07
2016-05-03T20:43:38.623Z,97.69
2016-05-03T20:44:38.940Z,97.78
2016-05-03T20:45:38.582Z,97.97
2016-05-03T20:46:37.772Z,97.59
2016-05-03T20:47:38.868Z,97.21
2016-05-03T20:48:38.075Z,98.25
2016-05-03T20:49:38.749Z,97.78
2016-05-03T20:50:38.861Z,97.97
2016-05-03T20:51:38.629Z,97.88
2016-05-03T20:52:37.616Z,97.97
2016-05-03T20:53:38.791Z,98.16
2016-05-03T20:55:04.218Z,97.97
2016-05-03T20:57:18.895Z,98.25
2016-05-03T20:59:29.948Z,98.35
2016-05-03T21:01:31.155Z,98.25
2016-05-03T21:03:33.849Z,98.07
2016-05-03T21:05:28.246Z,97.97
2016-05-03T21:07:12.860Z,97.97
2016-05-03T21:09:23.115Z,97.97
2016-05-03T21:11:21.605Z,97.97
2016-05-03T21:13:08.720Z,98.44
2016-05-03T21:15:10.412Z,98.35
2016-05-03T21:16:59.949Z,98.16
2016-05-03T21:19:09.565Z,98.25
2016-05-03T21:21:07.039Z,98.54
2016-05-03T21:23:15.794Z,98.44
2016-05-03T21:24:38.359Z,98.35
2016-05-03T21:25:39.518Z,98.35
2016-05-03T21:26:38.770Z,98.44
2016-05-03T21:27:38.383Z,98.44
2016-05-03T21:28:39.073Z,98.44
2016-05-03T21:29:38.825Z,98.25
2016-05-03T21:30:39.453Z,98.35
2016-05-03T21:31:39.425Z,98.35
2016-05-03T21:32:39.056Z,98.54
2016-05-03T21:33:39.465Z,98.73
2016-05-03T21:34:38.467Z,98.82
2016-05-03T21:35:39.423Z,98.73
2016-05-03T21:36:38.817Z,98.63
2016-05-03T21:37:39.366Z,98.63
2016-05-03T21:38:38.901Z,98.73
2016-05-03T21:39:48.309Z,98.82
2016-05-03T21:40:38.890Z,98.63
2016-05-03T21:41:38.142Z,98.44
2016-05-03T21:42:39.615Z,98.63
2016-05-03T21:43:38.820Z,98.35
2016-05-03T21:44:39.197Z,98.82
2016-05-03T21:45:39.233Z,98.73
2016-05-03T21:46:39.297Z,98.63
2016-05-03T21:47:39.190Z,98.73
2016-05-03T21:48:38.709Z,98.73
2016-05-03T21:49:38.164Z,98.63
2016-05-03T21:50:39.433Z,98.82
2016-05-03T21:51:39.919Z,98.73
2016-05-03T21:52:38.063Z,98.92
2016-05-03T21:53:39.394Z,98.35
2016-05-03T21:54:39.865Z,98.54
2016-05-03T21:58:58.127Z,98.73
2016-05-03T21:59:58.660Z,98.82
2016-05-03T22:00:57.179Z,98.82
2016-05-03T22:01:57.087Z,98.63
2016-05-03T22:02:58.199Z,98.82
2016-05-03T22:03:57.187Z,98.73
2016-05-03T22:04:57.251Z,98.82
2016-05-03T22:05:58.380Z,98.82
2016-05-03T22:06:57.257Z,98.73
2016-05-03T22:07:57.150Z,98.73
2016-05-03T22:08:57.184Z,98.63
2016-05-03T22:09:57.047Z,98.63
2016-05-03T22:10:56.799Z,98.73
2016-05-03T22:11:57.818Z,98.82
2016-05-03T22:12:57.289Z,98.92
2016-05-03T22:13:56.776Z,98.92
